KRAP

Rapid City Regional Airport

Rapid City, South Dakota, USA
METAR KRAP 170252Z 31008KT 10SM CLR 06/00 A3033 RMK AO2 SLP280 T00560000 51015
Observed Flight Rules
Oct-17 @ 02:52 UTC (18 minutes ago) Visual Flight Rules
Wind Visibility Clouds
310° at 8 knots 10 miles
  • Clear skies
Temperatures Readings
Current 6°C / 43°F
Dewpoint 0°C / 32°F
Humidity 66%
Altimeter 30.33" Hg
Pressure 1028 hPa
Elevation 965
METAR KRAP 170252Z 31008KT 10SM CLR 06/00 A3033 RMK AO2 SLP280 T00560000 51015
Observed Flight Rules
Oct-17 @ 02:52 UTC
(18 minutes ago)
VFR
Wind Visibility
310° at 8 knots 10 miles
Clouds
  • Clear skies
Temperature Dewpoint
6°C / 43°F 0°C / 32°F
Humidity Altimeter Pressure
66% 30.33" Hg 1028 hPa